Time;durP1;ratioP1;P1;durP2;ratioP2;P2;SDS_P1;SDS_P2;PMS_P1;PMS_P2;Temp;Humidity;BMP_temperature;BMP_pressure;BME280_temperature;BME280_humidity;BME280_pressure;Samples;Min_cycle;Max_cycle;Signal;HPM_P1;HPM_P2
2022/03/23 00:01:51;;;;;;;21.98;19.83;;;;;;;5.70;67.51;99933.63;4981911;28;103741;-60
2022/03/23 00:04:20;;;;;;;23.27;20.92;;;;;;;5.17;69.33;99930.13;4980794;28;103966;-60
2022/03/23 00:06:48;;;;;;;22.73;20.42;;;;;;;5.43;68.65;99937.16;4979545;28;103348;-60
2022/03/23 00:09:18;;;;;;;21.97;19.70;;;;;;;5.86;67.27;99932.28;4977642;28;102692;-59
2022/03/23 00:11:46;;;;;;;19.52;17.73;;;;;;;6.46;65.53;99928.41;4979006;28;102948;-60
2022/03/23 00:14:15;;;;;;;23.95;21.50;;;;;;;5.51;68.02;99932.53;4977826;28;104003;-61
2022/03/23 00:16:44;;;;;;;17.73;16.13;;;;;;;6.29;66.50;99932.47;4978848;28;103206;-60
2022/03/23 00:19:13;;;;;;;18.47;16.83;;;;;;;6.79;64.06;99940.31;4975450;28;102743;-60
2022/03/23 00:21:41;;;;;;;15.25;13.95;;;;;;;7.09;62.68;99930.38;4981772;28;102755;-60
2022/03/23 00:24:09;;;;;;;16.00;14.60;;;;;;;7.21;62.25;99929.91;4979221;28;103727;-60
2022/03/23 00:26:37;;;;;;;16.80;15.20;;;;;;;7.15;62.33;99933.63;4979991;28;102903;-60
2022/03/23 00:29:06;;;;;;;20.80;18.80;;;;;;;6.93;62.60;99938.00;4978796;28;102625;-60
2022/03/23 00:31:35;;;;;;;21.67;19.50;;;;;;;6.57;63.74;99931.50;4977648;28;103064;-60
2022/03/23 00:34:04;;;;;;;20.50;18.60;;;;;;;6.76;63.24;99937.78;4979030;28;103420;-60
2022/03/23 00:36:34;;;;;;;18.85;17.15;;;;;;;6.96;62.87;99933.47;4980522;28;103277;-60
2022/03/23 00:39:02;;;;;;;20.90;18.92;;;;;;;6.89;63.01;99933.78;4978981;28;103881;-60
2022/03/23 00:41:30;;;;;;;22.92;20.60;;;;;;;6.37;64.14;99934.84;4981694;28;103949;-60
2022/03/23 00:44:00;;;;;;;22.95;20.70;;;;;;;5.83;66.10;99937.59;4978472;28;103859;-60
2022/03/23 00:46:28;;;;;;;21.65;19.65;;;;;;;6.22;65.93;99935.38;4980037;28;103462;-60
2022/03/23 00:48:56;;;;;;;18.83;17.02;;;;;;;6.57;64.63;99936.75;4978108;28;102729;-60
2022/03/23 00:51:28;;;;;;;17.30;15.70;;;;;;;6.83;63.53;99939.25;4980018;28;104144;-60
2022/03/23 00:53:56;;;;;;;20.40;18.47;;;;;;;6.61;62.92;99946.22;4979329;28;104300;-60
2022/03/23 00:56:24;;;;;;;16.45;14.85;;;;;;;6.60;64.24;99936.63;4976400;28;103212;-60
2022/03/23 00:58:52;;;;;;;17.33;15.82;;;;;;;6.84;62.94;99930.47;4975169;28;102693;-60
2022/03/23 01:01:21;;;;;;;21.92;19.90;;;;;;;6.06;65.11;99926.34;4976951;28;102777;-60
2022/03/23 01:03:50;;;;;;;21.63;19.73;;;;;;;5.64;67.78;99933.88;4979599;28;104159;-60
2022/03/23 01:06:18;;;;;;;22.30;20.00;;;;;;;5.72;66.15;99934.47;4977343;28;103114;-60
2022/03/23 01:08:48;;;;;;;20.42;18.52;;;;;;;6.28;64.91;99930.78;4979052;28;102853;-60
2022/03/23 01:11:17;;;;;;;23.98;21.55;;;;;;;5.03;68.62;99938.41;4978643;28;102848;-60
2022/03/23 01:13:46;;;;;;;21.77;19.73;;;;;;;5.55;67.10;99931.53;4978386;28;103296;-60
2022/03/23 01:16:17;;;;;;;19.47;17.67;;;;;;;6.10;65.04;99926.16;4975307;28;103277;-61
2022/03/23 01:18:45;;;;;;;18.20;16.50;;;;;;;6.36;64.05;99928.75;4975000;28;102837;-60
2022/03/23 01:21:14;;;;;;;20.92;18.92;;;;;;;6.33;63.52;99923.59;4975492;28;103661;-60
2022/03/23 01:23:42;;;;;;;23.37;21.13;;;;;;;5.61;65.63;99918.22;4975608;28;104147;-60
2022/03/23 01:26:12;;;;;;;22.52;20.42;;;;;;;5.39;67.77;99925.09;4979589;28;103387;-60
2022/03/23 01:28:41;;;;;;;22.92;20.83;;;;;;;5.69;66.56;99918.84;4977939;28;102847;-60
2022/03/23 01:31:10;;;;;;;22.15;20.05;;;;;;;6.07;65.00;99926.28;4977326;28;103945;-60
2022/03/23 01:33:38;;;;;;;21.75;19.65;;;;;;;6.19;64.16;99920.59;4979399;28;103251;-60
2022/03/23 01:36:06;;;;;;;24.77;22.33;;;;;;;5.74;64.82;99924.78;4975179;28;103118;-60
2022/03/23 01:38:35;;;;;;;22.75;20.55;;;;;;;5.56;66.86;99917.50;4976970;28;102723;-60
2022/03/23 01:41:03;;;;;;;24.70;22.30;;;;;;;5.11;68.06;99919.81;4979313;28;102989;-60
2022/03/23 01:43:34;;;;;;;24.10;21.73;;;;;;;5.21;68.28;99916.03;4977576;28;105393;-60
2022/03/23 01:46:03;;;;;;;24.83;22.48;;;;;;;4.64;70.95;99927.38;4980247;28;104115;-60
2022/03/23 01:48:32;;;;;;;23.83;21.15;;;;;;;5.10;69.07;99926.84;4973728;28;102688;-60
2022/03/23 01:51:01;;;;;;;21.80;19.83;;;;;;;5.20;69.60;99919.56;4976712;28;103346;-61
2022/03/23 01:53:30;;;;;;;19.13;17.33;;;;;;;5.76;67.11;99915.94;4979136;28;103197;-60
2022/03/23 01:55:59;;;;;;;20.75;18.90;;;;;;;5.82;66.45;99914.88;4979022;28;105335;-60
2022/03/23 01:58:27;;;;;;;17.20;15.60;;;;;;;5.98;65.55;99916.09;4976652;28;102752;-60
2022/03/23 02:00:57;;;;;;;21.17;19.03;;;;;;;5.98;64.79;99910.84;4974808;28;105197;-60
2022/03/23 02:03:26;;;;;;;24.50;22.00;;;;;;;4.98;68.98;99919.38;4977032;28;104183;-60
2022/03/23 02:05:55;;;;;;;22.02;20.10;;;;;;;5.56;66.95;99918.38;4978367;28;104150;-59
2022/03/23 02:08:24;;;;;;;20.40;18.50;;;;;;;5.51;66.97;99908.94;4977032;28;103066;-60
2022/03/23 02:10:53;;;;;;;22.55;20.33;;;;;;;5.42;66.70;99919.75;4976975;28;103702;-59
2022/03/23 02:13:38;;;;;;;16.65;15.15;;;;;;;5.76;66.33;99915.94;4973082;28;105357;-59
2022/03/23 02:16:08;;;;;;;24.13;21.83;;;;;;;4.97;67.57;99925.50;4982198;28;104244;-59
2022/03/23 02:18:37;;;;;;;23.37;21.13;;;;;;;4.85;69.53;99923.28;4971450;28;102720;-59
2022/03/23 02:21:06;;;;;;;22.65;20.45;;;;;;;4.96;69.21;99925.56;4973576;28;102904;-59
2022/03/23 02:23:37;;;;;;;21.67;19.67;;;;;;;5.26;68.10;99919.34;4979636;28;103254;-59
2022/03/23 02:26:05;;;;;;;23.73;21.48;;;;;;;4.66;69.81;99928.16;4978762;28;103393;-59
2022/03/23 02:28:34;;;;;;;20.77;18.77;;;;;;;5.03;68.94;99922.69;4974680;28;102646;-59
2022/03/23 02:31:03;;;;;;;22.52;20.33;;;;;;;5.24;68.02;99919.44;4978038;28;102803;-59
2022/03/23 02:33:31;;;;;;;22.42;20.20;;;;;;;4.74;69.28;99922.72;4976173;28;103501;-59
2022/03/23 02:35:59;;;;;;;22.75;20.55;;;;;;;4.42;71.18;99928.03;4977168;28;102944;-60
2022/03/23 02:38:29;;;;;;;20.98;18.92;;;;;;;4.95;69.99;99924.69;4976165;28;103067;-59
2022/03/23 02:40:59;;;;;;;21.02;19.05;;;;;;;5.02;69.18;99921.00;4978403;28;102739;-59
2022/03/23 02:43:28;;;;;;;20.73;18.73;;;;;;;4.39;70.73;99922.88;4975063;28;103227;-59
2022/03/23 02:45:56;;;;;;;19.98;17.98;;;;;;;3.83;71.69;99929.63;4975068;28;103271;-60
2022/03/23 02:48:24;;;;;;;19.20;17.08;;;;;;;3.86;71.73;99935.66;4977567;28;103021;-60
2022/03/23 02:50:53;;;;;;;17.38;15.77;;;;;;;4.19;71.41;99933.03;4975554;28;102796;-60
2022/03/23 03:02:00;;;;;;;19.27;17.35;;;;;;;3.89;70.76;99948.63;4970712;28;103627;-60
2022/03/23 03:04:29;;;;;;;17.13;15.63;;;;;;;4.40;70.51;99950.75;4976999;28;103095;-59
2022/03/23 03:06:58;;;;;;;14.65;13.32;;;;;;;4.90;67.96;99946.69;4975392;28;104220;-60
2022/03/23 03:09:26;;;;;;;13.70;12.50;;;;;;;5.16;66.43;99947.63;4980743;28;102675;-60
2022/03/23 03:11:58;;;;;;;19.55;17.75;;;;;;;4.97;65.59;99949.06;4979503;28;104440;-60
2022/03/23 03:14:26;;;;;;;21.70;19.60;;;;;;;4.64;67.47;99947.44;4980341;28;103613;-59
2022/03/23 03:16:57;;;;;;;21.95;19.80;;;;;;;4.54;67.61;99956.47;4981171;28;103187;-59
2022/03/23 03:19:25;;;;;;;21.33;19.35;;;;;;;4.43;67.86;99953.31;4979596;28;102843;-60
2022/03/23 03:21:54;;;;;;;16.55;15.05;;;;;;;4.63;67.85;99948.38;4978801;28;104632;-60
2022/03/23 03:24:22;;;;;;;19.90;18.00;;;;;;;4.49;67.96;99953.13;4981178;28;103220;-59
2022/03/23 03:26:51;;;;;;;19.27;17.42;;;;;;;3.61;71.17;99958.06;4979728;28;103398;-60
2022/03/23 03:29:20;;;;;;;17.95;16.27;;;;;;;3.47;71.50;99960.16;4978481;28;102733;-59
2022/03/23 03:31:48;;;;;;;17.25;15.52;;;;;;;3.36;70.86;99951.72;4979241;28;104065;-59
2022/03/23 03:37:55;;;;;;;17.63;15.70;;;;;;;3.22;71.53;99959.00;4996608;28;104219;-59
2022/03/23 03:40:26;;;;;;;16.27;14.63;;;;;;;3.68;70.31;99951.78;4980618;28;102610;-60
2022/03/23 03:42:54;;;;;;;18.02;16.10;;;;;;;3.01;72.37;99964.69;4980108;28;102806;-59
2022/03/23 03:45:24;;;;;;;18.80;17.00;;;;;;;2.94;72.99;99961.38;4978116;28;103783;-59
2022/03/23 03:47:52;;;;;;;17.15;15.57;;;;;;;3.38;72.14;99960.38;4979576;28;103186;-59
2022/03/23 03:50:20;;;;;;;19.60;16.13;;;;;;;3.47;71.07;99960.16;4980203;28;102760;-60
2022/03/23 03:52:48;;;;;;;18.50;16.60;;;;;;;3.22;72.27;99961.63;4981772;28;103604;-60
2022/03/23 03:55:17;;;;;;;18.05;16.15;;;;;;;3.07;72.52;99964.56;4979006;28;103714;-60
2022/03/23 03:57:45;;;;;;;18.17;16.27;;;;;;;3.57;71.89;99964.25;4979870;28;103229;-61
2022/03/23 04:00:15;;;;;;;17.37;15.57;;;;;;;3.71;71.23;99963.91;4977807;28;102834;-58
2022/03/23 04:02:44;;;;;;;15.65;14.25;;;;;;;4.26;68.73;99971.22;4980514;28;104124;-59
2022/03/23 04:05:12;;;;;;;17.98;16.02;;;;;;;3.93;69.86;99965.94;4979185;28;104305;-59
2022/03/23 04:07:40;;;;;;;19.70;17.75;;;;;;;3.28;72.77;99966.72;4979530;28;103205;-60
2022/03/23 04:10:09;;;;;;;20.08;18.10;;;;;;;3.29;73.39;99971.03;4978680;28;102654;-60
2022/03/23 04:12:39;;;;;;;19.80;17.80;;;;;;;3.61;72.07;99967.66;4980588;28;103599;-60
2022/03/23 04:15:07;;;;;;;20.57;18.57;;;;;;;3.49;72.24;99964.44;4979352;28;103250;-59
2022/03/23 04:17:36;;;;;;;20.25;18.33;;;;;;;3.54;71.96;99960.88;4979243;28;103031;-59
2022/03/23 04:20:07;;;;;;;19.77;17.77;;;;;;;3.28;72.57;99974.56;4976942;28;102856;-60
2022/03/23 04:22:35;;;;;;;19.90;17.90;;;;;;;3.52;72.22;99966.13;4983978;28;102612;-60
2022/03/23 04:25:03;;;;;;;19.60;17.60;;;;;;;3.68;71.17;99964.00;4983811;28;103243;-60
2022/03/23 04:27:31;;;;;;;20.17;18.20;;;;;;;3.63;71.10;99966.72;4981946;28;103132;-60
2022/03/23 04:29:59;;;;;;;21.08;18.95;;;;;;;3.27;73.12;99972.81;4980549;28;102763;-59
2022/03/23 04:32:28;;;;;;;18.70;16.80;;;;;;;3.96;70.99;99965.88;4978864;28;103376;-60
2022/03/23 04:35:00;;;;;;;17.73;15.85;;;;;;;4.46;68.80;99972.38;4982846;28;103478;-59
2022/03/23 04:37:29;;;;;;;14.80;13.48;;;;;;;4.76;67.10;99970.66;4979974;28;104206;-60
2022/03/23 04:39:58;;;;;;;20.40;18.25;;;;;;;4.22;67.38;99985.25;4982105;28;102669;-59
2022/03/23 04:42:26;;;;;;;17.43;15.63;;;;;;;4.52;68.05;99974.00;4979619;28;103939;-59
2022/03/23 04:44:54;;;;;;;18.75;16.88;;;;;;;4.53;66.97;99978.31;4979515;28;104518;-60
2022/03/23 04:47:22;;;;;;;15.10;13.70;;;;;;;4.66;66.93;99979.66;4977594;28;103222;-60
2022/03/23 04:49:50;;;;;;;15.52;14.13;;;;;;;4.88;66.11;99972.06;4977822;28;103224;-60
2022/03/23 04:52:19;;;;;;;17.38;15.68;;;;;;;4.88;65.34;99975.56;4980230;28;103161;-59
2022/03/23 04:54:48;;;;;;;17.38;15.73;;;;;;;4.42;67.79;99983.84;4979849;28;104099;-60
2022/03/23 04:57:19;;;;;;;19.48;17.67;;;;;;;4.58;67.11;99981.63;4975875;28;103506;-61
2022/03/23 04:59:47;;;;;;;16.73;15.25;;;;;;;4.41;68.09;99986.47;4976886;28;102936;-60
2022/03/23 05:02:15;;;;;;;14.82;13.43;;;;;;;4.61;67.37;99992.03;4977839;28;103697;-60
2022/03/23 05:04:44;;;;;;;16.35;14.75;;;;;;;4.70;66.83;99986.53;4984887;28;103858;-61
2022/03/23 05:07:12;;;;;;;18.10;16.40;;;;;;;4.69;66.79;99992.66;4977894;28;104132;-60
2022/03/23 05:09:40;;;;;;;19.55;17.50;;;;;;;4.33;68.16;99993.69;4977064;28;102605;-60
2022/03/23 05:12:10;;;;;;;19.08;17.10;;;;;;;4.43;67.25;99987.31;4978726;28;103210;-59
2022/03/23 05:14:39;;;;;;;18.40;16.60;;;;;;;4.46;67.30;99988.06;4979398;28;103239;-59
2022/03/23 05:17:07;;;;;;;17.70;15.90;;;;;;;4.71;66.80;99985.66;4978122;28;103243;-60
2022/03/23 05:19:35;;;;;;;21.10;19.10;;;;;;;4.47;66.99;99988.94;4983744;28;102898;-60
2022/03/23 05:22:05;;;;;;;22.23;20.02;;;;;;;4.28;67.19;99996.44;4977753;28;104183;-60
2022/03/23 05:24:33;;;;;;;17.00;15.50;;;;;;;4.62;67.42;99988.53;4978427;28;103334;-59
2022/03/23 05:27:01;;;;;;;16.88;15.38;;;;;;;4.52;67.90;99997.53;4979503;28;103295;-59
2022/03/23 05:29:32;;;;;;;15.83;14.33;;;;;;;4.81;66.54;99994.09;4980152;28;102606;-58
2022/03/23 05:32:00;;;;;;;20.25;18.30;;;;;;;4.36;67.61;99997.09;4978642;28;103033;-58
2022/03/23 05:34:28;;;;;;;21.83;19.60;;;;;;;4.25;67.71;100003.50;4975093;28;104011;-59
2022/03/23 05:36:56;;;;;;;20.30;18.35;;;;;;;4.39;66.86;100001.38;4977470;28;103232;-57
2022/03/23 05:39:25;;;;;;;22.50;20.23;;;;;;;3.51;71.70;100006.22;4976178;28;102809;-61
2022/03/23 05:41:53;;;;;;;22.67;20.45;;;;;;;3.55;72.04;100005.25;4978044;28;102686;-62
2022/03/23 05:44:21;;;;;;;21.63;19.60;;;;;;;4.02;70.29;99999.72;4973382;28;103699;-59
2022/03/23 05:46:51;;;;;;;21.70;19.52;;;;;;;4.32;69.29;100010.31;4978325;28;103358;-59
2022/03/23 05:49:19;;;;;;;22.58;20.38;;;;;;;4.13;69.60;100009.06;4983330;28;102882;-59
2022/03/23 05:51:48;;;;;;;21.87;19.67;;;;;;;4.14;69.93;100009.00;4965191;28;102720;-62
2022/03/23 05:54:17;;;;;;;22.10;19.73;;;;;;;4.09;69.96;100011.75;4971203;28;103854;-58
2022/03/23 05:56:47;;;;;;;21.48;19.33;;;;;;;4.20;70.50;100013.22;4978753;28;103128;-59
2022/03/23 05:59:15;;;;;;;22.10;19.80;;;;;;;4.12;70.60;100012.56;4975198;28;103085;-62
2022/03/23 06:01:44;;;;;;;21.23;19.00;;;;;;;4.36;70.36;100014.53;4974049;28;103930;-62
2022/03/23 06:04:13;;;;;;;20.70;18.63;;;;;;;4.45;69.73;100012.53;4974093;28;104437;-58
2022/03/23 06:06:42;;;;;;;21.10;18.90;;;;;;;4.70;68.90;100012.72;4974903;28;103187;-63
2022/03/23 06:09:12;;;;;;;19.83;17.80;;;;;;;4.85;68.44;100012.31;4978026;28;102729;-61
2022/03/23 06:11:41;;;;;;;22.50;20.17;;;;;;;4.33;69.75;100017.22;4977979;28;103049;-61
2022/03/23 06:14:09;;;;;;;17.80;16.10;;;;;;;5.07;67.96;100017.78;4969206;28;103711;-62
2022/03/23 06:16:37;;;;;;;20.10;18.15;;;;;;;5.02;68.46;100014.44;4977551;28;103421;-58
2022/03/23 06:19:05;;;;;;;20.13;17.87;;;;;;;5.16;67.24;100015.75;4976542;28;102883;-61
2022/03/23 06:21:36;;;;;;;20.60;18.60;;;;;;;4.89;68.34;100019.16;4975625;28;104080;-58
2022/03/23 06:24:04;;;;;;;19.85;17.90;;;;;;;4.79;68.37;100020.34;4971071;28;103993;-58
2022/03/23 06:26:33;;;;;;;16.67;15.17;;;;;;;5.47;66.70;100025.31;4973990;28;104135;-58
2022/03/23 06:29:01;;;;;;;16.17;14.60;;;;;;;5.86;65.23;100021.44;4976698;28;102689;-58
2022/03/23 06:31:29;;;;;;;20.27;18.27;;;;;;;5.65;64.78;100022.09;4967307;28;103693;-62
2022/03/23 06:33:59;;;;;;;16.17;14.65;;;;;;;5.88;65.02;100011.75;4972399;28;104228;-58
2022/03/23 06:36:27;;;;;;;15.40;14.00;;;;;;;6.24;63.92;100020.16;4975085;28;103180;-59
2022/03/23 06:38:57;;;;;;;18.63;16.73;;;;;;;6.32;63.04;100026.00;4975065;28;103292;-58
2022/03/23 06:41:25;;;;;;;18.37;16.57;;;;;;;6.45;63.06;100026.47;4968589;28;104239;-58
2022/03/23 06:43:53;;;;;;;16.75;15.13;;;;;;;6.65;62.83;100030.09;4980559;28;104607;-62
2022/03/23 06:46:21;;;;;;;19.00;17.20;;;;;;;6.45;63.15;100036.97;4980304;28;103233;-61
2022/03/23 06:48:50;;;;;;;20.10;17.35;;;;;;;6.09;64.08;100039.06;4979909;28;102770;-59
2022/03/23 06:51:19;;;;;;;17.83;16.13;;;;;;;6.58;63.22;100046.13;4982686;28;103593;-62
2022/03/23 06:53:47;;;;;;;18.85;17.05;;;;;;;6.73;62.92;100042.97;4982324;28;103901;-62
2022/03/23 06:56:17;;;;;;;17.92;16.17;;;;;;;6.85;62.06;100047.75;4983967;28;104199;-59
2022/03/23 06:58:45;;;;;;;17.85;16.17;;;;;;;6.94;61.47;100053.53;4978898;28;102649;-58
2022/03/23 07:01:13;;;;;;;18.10;16.40;;;;;;;6.99;61.90;100051.59;4983475;28;102737;-62
2022/03/23 07:03:41;;;;;;;17.92;16.13;;;;;;;7.18;61.30;100051.81;4982414;28;104095;-59
2022/03/23 07:06:10;;;;;;;19.57;17.47;;;;;;;7.21;60.58;100061.34;4983147;28;103332;-62
2022/03/23 07:11:24;;;;;;;20.17;18.20;;;;;;;7.40;60.79;100065.00;4983411;28;103956;-63
2022/03/23 07:13:53;;;;;;;21.53;19.33;;;;;;;7.39;59.66;100058.00;4983692;28;104151;-59
2022/03/23 07:16:21;;;;;;;22.35;19.92;;;;;;;7.09;59.10;100062.66;4976475;28;103421;-59
2022/03/23 07:18:50;;;;;;;21.42;19.20;;;;;;;7.28;59.81;100061.03;4980407;28;102702;-58
2022/03/23 07:21:18;;;;;;;21.48;19.38;;;;;;;7.58;58.18;100059.88;4980351;28;103647;-58
2022/03/23 07:23:46;;;;;;;20.73;18.63;;;;;;;8.02;57.71;100057.25;4978233;28;104369;-57
2022/03/23 07:26:15;;;;;;;21.70;19.50;;;;;;;8.00;56.83;100064.38;4980675;28;103217;-61
2022/03/23 07:28:45;;;;;;;21.53;19.43;;;;;;;8.23;56.48;100061.63;4983639;28;102848;-60
2022/03/23 07:31:13;;;;;;;21.15;18.98;;;;;;;8.25;56.00;100069.50;4980590;28;103947;-61
2022/03/23 07:33:42;;;;;;;20.92;19.02;;;;;;;8.49;55.64;100071.97;4977458;28;104516;-58
2022/03/23 07:36:12;;;;;;;22.30;20.03;;;;;;;8.37;55.05;100064.59;4981442;28;103292;-61
2022/03/23 07:38:40;;;;;;;20.45;18.25;;;;;;;9.03;53.87;100070.50;4981575;28;103306;-61
2022/03/23 07:41:08;;;;;;;20.23;18.33;;;;;;;9.25;53.71;100060.72;4978341;28;104157;-58
2022/03/23 07:43:36;;;;;;;22.03;19.83;;;;;;;9.31;53.11;100066.56;4978323;28;103580;-58
2022/03/23 07:46:06;;;;;;;20.02;17.95;;;;;;;9.81;52.58;100066.84;4979913;28;103323;-58
2022/03/23 07:48:35;;;;;;;19.45;17.42;;;;;;;10.29;52.00;100062.78;4978569;28;102692;-58
2022/03/23 07:51:03;;;;;;;20.23;18.20;;;;;;;10.43;51.11;100055.00;4980055;28;103623;-58
2022/03/23 07:53:31;;;;;;;20.13;18.17;;;;;;;10.89;50.93;100059.63;4976867;28;104318;-61
2022/03/23 07:55:59;;;;;;;20.95;18.83;;;;;;;11.18;49.67;100055.47;4976408;28;103181;-61
2022/03/23 07:58:28;;;;;;;20.08;18.08;;;;;;;11.32;50.56;100063.50;4975882;28;103201;-61
2022/03/23 08:00:57;;;;;;;19.63;17.73;;;;;;;11.71;49.35;100055.19;4977960;28;103853;-62
2022/03/23 08:03:28;;;;;;;20.27;18.45;;;;;;;11.24;48.82;100059.56;4976688;28;103617;-62
2022/03/23 08:05:57;;;;;;;21.60;19.27;;;;;;;11.59;48.11;100067.28;4974562;28;103503;-62
2022/03/23 08:08:25;;;;;;;21.10;18.98;;;;;;;12.33;47.99;100054.28;4981029;28;102737;-58
2022/03/23 08:10:54;;;;;;;21.02;18.98;;;;;;;12.62;46.64;100061.38;4978928;28;103695;-58
2022/03/23 08:13:22;;;;;;;20.60;18.55;;;;;;;12.84;46.49;100068.91;4980366;28;103022;-58
2022/03/23 08:15:50;;;;;;;21.87;19.87;;;;;;;13.27;46.70;100065.41;4981019;28;103200;-62
2022/03/23 08:18:21;;;;;;;21.40;19.30;;;;;;;13.32;45.17;100058.00;4984663;28;102807;-58
2022/03/23 08:20:50;;;;;;;21.85;19.75;;;;;;;13.40;45.03;100064.59;4981970;28;103963;-58
2022/03/23 08:23:19;;;;;;;21.13;18.92;;;;;;;13.36;42.88;100063.97;4979168;28;103547;-58
2022/03/23 08:25:47;;;;;;;21.43;19.23;;;;;;;14.14;42.28;100059.81;4981219;28;103178;-58
2022/03/23 08:28:15;;;;;;;20.20;18.30;;;;;;;13.59;43.32;100054.53;4979460;28;103088;-58
2022/03/23 08:30:44;;;;;;;20.80;18.92;;;;;;;14.05;42.52;100053.28;4982034;28;104019;-62
2022/03/23 08:33:13;;;;;;;19.60;17.70;;;;;;;15.16;42.16;100053.75;4977382;28;103866;-59
2022/03/23 08:35:41;;;;;;;21.00;18.80;;;;;;;14.43;41.38;100054.31;4978307;28;104361;-58
2022/03/23 08:38:12;;;;;;;21.60;19.35;;;;;;;14.24;41.75;100056.44;4979062;28;103022;-63
2022/03/23 08:40:40;;;;;;;21.53;19.33;;;;;;;15.14;41.28;100060.97;4974434;28;104175;-58
2022/03/23 08:43:08;;;;;;;20.90;18.92;;;;;;;15.60;40.97;100060.34;4978080;28;104369;-58
2022/03/23 08:45:36;;;;;;;21.05;19.00;;;;;;;16.07;40.49;100053.38;4980849;28;103207;-62
2022/03/23 08:48:05;;;;;;;22.38;20.15;;;;;;;15.91;41.73;100048.31;4981159;28;102606;-62
2022/03/23 08:50:34;;;;;;;21.27;19.08;;;;;;;15.20;40.33;100050.75;4977963;28;103822;-62
2022/03/23 08:53:03;;;;;;;21.60;19.48;;;;;;;15.77;41.15;100039.63;4979340;28;104445;-58
2022/03/23 08:55:33;;;;;;;20.58;18.45;;;;;;;16.45;38.82;100043.34;4973294;28;103330;-58
2022/03/23 08:58:01;;;;;;;21.10;19.23;;;;;;;16.75;39.55;100042.88;4989066;28;102700;-61
2022/03/23 09:00:30;;;;;;;22.33;20.02;;;;;;;16.55;39.35;100047.06;4977825;28;104218;-62
2022/03/23 09:02:58;;;;;;;22.13;19.83;;;;;;;16.90;39.06;100043.53;4974954;28;104446;-58
2022/03/23 09:05:26;;;;;;;21.90;19.83;;;;;;;17.14;37.44;100036.28;4975976;28;103214;-58
2022/03/23 09:07:55;;;;;;;22.15;19.95;;;;;;;17.25;37.81;100038.94;4975672;28;103004;-58
2022/03/23 09:10:23;;;;;;;21.25;19.17;;;;;;;17.36;36.97;100046.97;4978780;28;104083;-58
2022/03/23 09:12:53;;;;;;;21.80;19.52;;;;;;;16.18;38.42;100045.41;4979293;28;103442;-62
2022/03/23 09:15:21;;;;;;;21.40;19.38;;;;;;;16.64;38.62;100038.38;4975829;28;103219;-63
2022/03/23 09:17:49;;;;;;;20.70;18.77;;;;;;;17.64;37.04;100035.81;4971055;28;103142;-61
2022/03/23 09:20:17;;;;;;;22.95;20.75;;;;;;;17.69;38.64;100033.63;4974996;28;102706;-58
2022/03/23 09:22:46;;;;;;;22.33;20.33;;;;;;;15.61;38.43;100034.53;4979056;28;103170;-58
2022/03/23 09:25:15;;;;;;;22.67;20.48;;;;;;;16.33;38.58;100036.28;4981198;28;103073;-58
2022/03/23 09:27:44;;;;;;;21.80;19.75;;;;;;;17.28;36.58;100034.22;4979856;28;102787;-58
2022/03/23 09:30:14;;;;;;;22.33;20.08;;;;;;;17.55;37.30;100031.19;4973485;28;103919;-63
2022/03/23 09:32:46;;;;;;;22.35;20.23;;;;;;;18.45;36.45;100024.63;4980869;28;103332;-58
2022/03/23 09:35:15;;;;;;;21.33;19.33;;;;;;;18.65;35.58;100023.84;4976882;28;103342;-63
2022/03/23 09:37:50;;;;;;;20.30;18.50;;;;;;;19.16;34.85;100029.22;4977306;28;102747;-63
2022/03/23 09:40:24;;;;;;;21.20;19.13;;;;;;;19.43;34.54;100023.31;4975030;28;103259;-64
2022/03/23 09:43:00;;;;;;;19.95;17.95;;;;;;;18.12;34.12;100022.09;4975058;28;103701;-63
2022/03/23 09:45:46;;;;;;;19.95;17.95;;;;;;;18.37;32.99;100024.44;4975040;28;102951;-63
2022/03/23 09:48:17;;;;;;;17.40;15.75;;;;;;;18.18;32.63;100019.78;4978813;28;102653;-63
2022/03/23 09:50:50;;;;;;;18.85;16.98;;;;;;;17.55;32.91;100015.16;4976684;28;103198;-60
2022/03/23 09:53:19;;;;;;;20.00;18.00;;;;;;;18.24;32.76;100015.75;4976701;28;104078;-59
2022/03/23 09:55:49;;;;;;;18.42;16.55;;;;;;;17.53;33.26;100016.22;4976044;28;103377;-59
2022/03/23 09:58:17;;;;;;;18.37;16.57;;;;;;;18.46;31.39;100012.97;4976017;28;103309;-59
2022/03/23 10:00:48;;;;;;;19.30;17.55;;;;;;;18.32;32.61;100011.44;4972987;28;102750;-64
2022/03/23 10:04:06;;;;;;;15.47;14.03;;;;;;;18.84;30.85;100015.94;4976684;28;103199;-64
2022/03/23 10:07:02;;;;;;;19.10;17.27;;;;;;;17.86;32.43;100009.03;4975609;28;103242;-63
2022/03/23 10:10:13;;;;;;;14.57;13.20;;;;;;;17.43;30.86;100010.78;4964087;28;102741;-64
2022/03/23 10:13:19;;;;;;;17.75;15.95;;;;;;;17.52;32.34;100012.72;4978977;28;103042;-64
2022/03/23 10:16:43;;;;;;;16.10;14.70;;;;;;;18.97;30.44;100005.88;4977525;28;104297;-65
2022/03/23 10:19:13;;;;;;;16.35;14.82;;;;;;;19.33;31.18;100006.31;4984752;28;103181;-65
2022/03/23 10:21:42;;;;;;;13.82;12.60;;;;;;;20.16;29.64;99998.78;4984942;28;102701;-65
2022/03/23 10:24:33;;;;;;;18.27;16.65;;;;;;;18.95;29.13;99993.56;4975786;28;103979;-65
2022/03/23 10:27:12;;;;;;;16.67;15.25;;;;;;;18.74;29.92;99996.28;4981652;28;104132;-65
2022/03/23 10:29:46;;;;;;;17.35;15.65;;;;;;;19.75;29.11;99991.81;4982046;28;103108;-61
2022/03/23 10:32:17;;;;;;;16.45;15.05;;;;;;;19.26;30.07;99991.75;4981897;28;102782;-60
2022/03/23 10:34:50;;;;;;;17.25;15.57;;;;;;;18.53;30.05;99990.94;4984446;28;102727;-64
2022/03/23 10:37:25;;;;;;;16.90;15.40;;;;;;;17.17;30.73;99991.50;4982040;28;104133;-65
2022/03/23 10:39:55;;;;;;;16.60;15.00;;;;;;;17.68;30.38;99983.81;4983197;28;104173;-65
2022/03/23 10:42:25;;;;;;;16.65;15.05;;;;;;;18.91;30.33;99981.44;4985352;28;102728;-60
2022/03/23 10:45:04;;;;;;;15.33;13.93;;;;;;;20.09;29.01;99979.72;4982756;28;104171;-65
2022/03/23 10:47:34;;;;;;;14.38;13.00;;;;;;;18.16;27.91;99976.22;4981951;28;104646;-61
2022/03/23 10:50:21;;;;;;;13.97;12.77;;;;;;;19.54;28.98;99972.28;4980433;28;103245;-61
2022/03/23 10:52:52;;;;;;;14.45;13.20;;;;;;;20.17;28.68;99973.66;4980517;28;102743;-61
2022/03/23 10:55:21;;;;;;;12.83;11.80;;;;;;;20.58;27.39;99973.38;4983282;28;103761;-65
2022/03/23 11:02:00;;;;;;;12.73;11.63;;;;;;;21.15;26.82;99961.66;4962994;28;103438;-64
2022/03/23 11:04:32;;;;;;;13.30;12.20;;;;;;;20.74;26.73;99952.13;4981036;28;102659;-66
2022/03/23 11:07:02;;;;;;;13.82;12.57;;;;;;;20.26;26.56;99953.19;4980479;28;103961;-65
2022/03/23 11:18:07;;;;;;;11.45;10.55;;;;;;;21.24;24.47;99935.72;4977610;28;103664;-62
2022/03/23 11:20:44;;;;;;;11.70;10.68;;;;;;;19.49;24.68;99940.53;4969268;28;104024;-62
2022/03/23 11:23:23;;;;;;;12.32;11.20;;;;;;;18.56;26.10;99941.63;4984101;28;103182;-62
2022/03/23 11:25:52;;;;;;;12.82;11.43;;;;;;;20.60;26.65;99938.34;4983308;28;102809;-62
2022/03/23 11:28:28;;;;;;;11.32;10.43;;;;;;;21.57;24.78;99936.94;4983567;28;103630;-62
2022/03/23 11:31:01;;;;;;;12.07;10.88;;;;;;;20.23;24.90;99935.53;4975601;28;103585;-61
2022/03/23 11:33:32;;;;;;;13.63;12.40;;;;;;;19.32;26.64;99930.44;4983397;28;103255;-62
2022/03/23 11:36:03;;;;;;;12.93;11.50;;;;;;;19.60;25.52;99926.16;4967793;28;102984;-62
2022/03/23 11:38:34;;;;;;;12.30;11.20;;;;;;;19.79;25.25;99925.34;4978310;28;103679;-65
2022/03/23 11:41:02;;;;;;;13.07;11.82;;;;;;;19.21;26.24;99927.00;4978819;28;103825;-65
2022/03/23 11:43:33;;;;;;;12.37;11.30;;;;;;;19.75;25.94;99919.41;4978547;28;103003;-65
2022/03/23 11:46:21;;;;;;;11.65;10.48;;;;;;;20.72;25.27;99918.34;4970871;28;102840;-65
2022/03/23 11:49:00;;;;;;;11.82;10.82;;;;;;;20.33;25.90;99916.75;4975990;28;104854;-62
2022/03/23 11:51:59;;;;;;;11.23;10.25;;;;;;;20.35;25.46;99912.09;4977741;28;103661;-61
2022/03/23 11:55:37;;;;;;;11.20;10.25;;;;;;;20.75;24.31;99915.38;4978464;28;103188;-62